createdAt,value
2018-03-24T00:00:35.716Z,0
2018-03-24T00:01:45.388Z,0
2018-03-24T00:02:54.507Z,0
2018-03-24T00:04:03.614Z,0
2018-03-24T00:05:12.443Z,0
2018-03-24T00:06:21.280Z,0
2018-03-24T00:07:30.436Z,0
2018-03-24T00:08:39.269Z,0
2018-03-24T00:09:48.376Z,0
2018-03-24T00:10:57.208Z,0
2018-03-24T00:12:06.319Z,0
2018-03-24T00:13:15.205Z,0
2018-03-24T00:14:24.033Z,0
2018-03-24T00:15:33.141Z,0
2018-03-24T00:16:42.256Z,0
2018-03-24T00:17:51.086Z,0
2018-03-24T00:19:00.195Z,0
2018-03-24T00:20:09.026Z,0
2018-03-24T00:21:18.683Z,0
2018-03-24T00:22:27.516Z,0
2018-03-24T00:23:36.345Z,0
2018-03-24T00:24:45.376Z,0
2018-03-24T00:25:54.205Z,0
2018-03-24T00:27:03.035Z,0
2018-03-24T00:28:11.866Z,0
2018-03-24T00:29:20.699Z,0
2018-03-24T00:30:29.528Z,0
2018-03-24T00:31:38.670Z,0
2018-03-24T00:32:47.470Z,0
2018-03-24T00:33:56.586Z,0
2018-03-24T00:35:05.416Z,0
2018-03-24T00:36:14.398Z,0
2018-03-24T00:37:23.232Z,0
2018-03-24T00:38:32.059Z,0
2018-03-24T00:39:40.886Z,0
2018-03-24T00:40:49.717Z,0
2018-03-24T00:41:58.931Z,0
2018-03-24T00:43:08.035Z,0
2018-03-24T00:44:16.866Z,0
2018-03-24T00:45:25.698Z,0
2018-03-24T00:46:34.530Z,0
2018-03-24T00:47:43.795Z,0
2018-03-24T00:48:52.623Z,0
2018-03-24T00:50:01.458Z,0
2018-03-24T00:51:10.285Z,0
2018-03-24T00:52:19.392Z,0
2018-03-24T00:53:28.326Z,0
2018-03-24T00:54:37.170Z,0
2018-03-24T00:55:46.278Z,0
2018-03-24T00:56:55.108Z,0
2018-03-24T00:58:03.937Z,0
2018-03-24T00:59:12.871Z,0
2018-03-24T01:00:21.706Z,0
2018-03-24T01:01:30.814Z,0
2018-03-24T01:02:39.644Z,0
2018-03-24T01:03:48.475Z,0
2018-03-24T01:04:57.410Z,0
2018-03-24T01:06:06.516Z,0
2018-03-24T01:07:15.351Z,0
2018-03-24T01:08:24.181Z,0
2018-03-24T01:09:33.013Z,0
2018-03-24T01:10:41.944Z,0
2018-03-24T01:11:50.780Z,0
2018-03-24T01:12:59.613Z,0
2018-03-24T01:14:08.445Z,0
2018-03-24T01:15:17.550Z,0
2018-03-24T01:16:26.529Z,0
2018-03-24T01:17:35.361Z,0
2018-03-24T01:18:44.467Z,0
2018-03-24T01:19:53.301Z,0
2018-03-24T01:21:02.412Z,0
2018-03-24T01:22:11.819Z,0
2018-03-24T01:23:20.651Z,0
2018-03-24T01:24:29.482Z,0
2018-03-24T01:25:38.315Z,0
2018-03-24T01:26:47.147Z,0
2018-03-24T01:27:56.408Z,0
2018-03-24T01:29:05.240Z,0
2018-03-24T01:30:14.071Z,0
2018-03-24T01:31:23.195Z,0
2018-03-24T01:32:32.583Z,0
2018-03-24T01:33:41.414Z,0
2018-03-24T01:34:50.798Z,0
2018-03-24T01:35:59.910Z,0
2018-03-24T01:37:08.740Z,0
2018-03-24T01:38:17.574Z,0
2018-03-24T01:39:26.458Z,0
2018-03-24T01:40:35.289Z,0
2018-03-24T01:41:44.122Z,0
2018-03-24T01:42:52.956Z,0
2018-03-24T01:44:01.789Z,0
2018-03-24T01:45:10.947Z,0
2018-03-24T01:46:20.345Z,0
2018-03-24T01:47:29.176Z,0
2018-03-24T01:48:38.008Z,0
2018-03-24T01:49:46.843Z,0
2018-03-24T01:50:55.676Z,0
2018-03-24T01:52:04.510Z,0
2018-03-24T01:53:13.340Z,0
2018-03-24T01:54:22.174Z,0
2018-03-24T01:55:31.002Z,0
2018-03-24T01:56:40.408Z,0
2018-03-24T01:57:49.240Z,0
2018-03-24T01:58:58.068Z,0
2018-03-24T02:00:06.898Z,0
2018-03-24T02:01:15.731Z,0
2018-03-24T02:02:24.716Z,0
2018-03-24T02:03:33.543Z,0
2018-03-24T02:04:42.375Z,0
2018-03-24T02:05:51.481Z,0
2018-03-24T02:07:00.314Z,0
2018-03-24T02:08:09.245Z,0
2018-03-24T02:09:18.080Z,0
2018-03-24T02:10:26.906Z,0
2018-03-24T02:11:35.937Z,0
2018-03-24T02:12:44.770Z,0
2018-03-24T02:13:53.653Z,0
2018-03-24T02:15:02.491Z,0
2018-03-24T02:16:11.327Z,0
2018-03-24T02:17:20.157Z,0
2018-03-24T02:18:28.992Z,0
2018-03-24T02:19:37.873Z,0
2018-03-24T02:20:46.706Z,0
2018-03-24T02:21:55.535Z,0
2018-03-24T02:23:04.365Z,0
2018-03-24T02:24:13.196Z,0
2018-03-24T02:25:22.177Z,0
2018-03-24T02:26:31.013Z,0
2018-03-24T02:27:39.843Z,0
2018-03-24T02:28:48.676Z,0
2018-03-24T02:29:57.510Z,0
2018-03-24T02:31:06.375Z,0
2018-03-24T02:32:15.175Z,0
2018-03-24T02:33:24.567Z,0
2018-03-24T02:34:33.401Z,0
2018-03-24T02:35:42.232Z,0
2018-03-24T02:36:51.117Z,0
2018-03-24T02:38:00.236Z,0
2018-03-24T02:39:09.334Z,0
2018-03-24T02:40:18.167Z,0
2018-03-24T02:41:27.000Z,0
2018-03-24T02:42:35.937Z,0
2018-03-24T02:43:44.767Z,0
2018-03-24T02:44:53.601Z,0
2018-03-24T02:46:02.433Z,0
2018-03-24T02:47:11.263Z,0
2018-03-24T02:48:20.401Z,0
2018-03-24T02:49:29.226Z,0
2018-03-24T02:50:38.345Z,0
2018-03-24T02:51:47.179Z,0
2018-03-24T02:52:56.021Z,0
2018-03-24T02:54:04.944Z,0
2018-03-24T02:55:13.772Z,0
2018-03-24T02:56:22.603Z,0
2018-03-24T02:57:31.435Z,0
2018-03-24T02:58:40.546Z,0
2018-03-24T02:59:49.476Z,0
2018-03-24T03:00:58.309Z,0
2018-03-24T03:02:07.142Z,0
2018-03-24T03:03:15.972Z,0
2018-03-24T03:04:24.806Z,0
2018-03-24T03:05:34.023Z,0
2018-03-24T03:06:43.129Z,0
2018-03-24T03:07:52.241Z,0
2018-03-24T03:09:01.083Z,0
2018-03-24T03:10:09.902Z,0
2018-03-24T03:11:18.784Z,0
2018-03-24T03:12:27.613Z,0
2018-03-24T03:13:36.445Z,0
2018-03-24T03:14:45.277Z,0
2018-03-24T03:15:54.113Z,0
2018-03-24T03:17:03.096Z,0
2018-03-24T03:18:12.205Z,0
2018-03-24T03:19:21.036Z,0
2018-03-24T03:20:29.869Z,0
2018-03-24T03:21:38.699Z,0
2018-03-24T03:22:47.690Z,0
2018-03-24T03:23:56.516Z,0
2018-03-24T03:25:05.627Z,0
2018-03-24T03:26:14.740Z,0
2018-03-24T03:27:23.571Z,0
2018-03-24T03:28:32.467Z,0
2018-03-24T03:29:41.300Z,0
2018-03-24T03:30:50.135Z,0
2018-03-24T03:31:58.970Z,0
2018-03-24T03:33:08.136Z,0
2018-03-24T03:34:17.022Z,0
2018-03-24T03:35:25.855Z,0
2018-03-24T03:36:34.687Z,0
2018-03-24T03:37:43.526Z,0
2018-03-24T03:38:52.957Z,0
2018-03-24T03:40:01.939Z,0
2018-03-24T03:41:10.771Z,0
2018-03-24T03:42:19.604Z,0
2018-03-24T03:43:28.436Z,0
2018-03-24T03:44:37.319Z,0
2018-03-24T03:45:46.149Z,0
2018-03-24T03:46:55.255Z,0
2018-03-24T03:48:04.083Z,0
2018-03-24T03:49:12.915Z,0
2018-03-24T03:50:22.033Z,0
2018-03-24T03:51:31.108Z,0
2018-03-24T03:52:39.948Z,0
2018-03-24T03:53:48.773Z,0
2018-03-24T03:54:57.604Z,0
2018-03-24T03:56:06.434Z,0
2018-03-24T03:57:15.368Z,0
2018-03-24T03:58:24.472Z,0
2018-03-24T03:59:33.300Z,0
2018-03-24T04:00:42.407Z,0
2018-03-24T04:01:51.510Z,0
2018-03-24T04:03:00.391Z,0
2018-03-24T04:04:09.225Z,0
2018-03-24T04:05:18.054Z,0
2018-03-24T04:06:26.885Z,0
2018-03-24T04:07:35.713Z,0
2018-03-24T04:08:44.819Z,0
2018-03-24T04:09:53.659Z,0
2018-03-24T04:11:02.771Z,0
2018-03-24T04:12:11.600Z,0
2018-03-24T04:13:20.429Z,0
2018-03-24T04:14:29.263Z,0
2018-03-24T04:15:38.094Z,0
2018-03-24T04:16:46.926Z,0
2018-03-24T04:17:55.757Z,0
2018-03-24T04:19:04.870Z,0
2018-03-24T04:20:14.233Z,0
2018-03-24T04:21:23.064Z,0
2018-03-24T04:22:31.890Z,0
2018-03-24T04:23:40.722Z,0
2018-03-24T04:24:49.554Z,0
2018-03-24T04:25:58.385Z,0
2018-03-24T04:27:07.215Z,0
2018-03-24T04:28:16.047Z,0
2018-03-24T04:29:24.876Z,0
2018-03-24T04:30:33.707Z,0
2018-03-24T04:31:42.537Z,0
2018-03-24T04:32:51.370Z,0
2018-03-24T04:34:00.203Z,0
2018-03-24T04:35:09.033Z,0
2018-03-24T04:36:17.862Z,0
2018-03-24T04:37:26.802Z,0
2018-03-24T04:38:35.918Z,0
2018-03-24T04:39:44.748Z,0
2018-03-24T04:40:53.575Z,0
2018-03-24T04:42:02.416Z,0
2018-03-24T04:43:11.348Z,0
2018-03-24T04:44:20.180Z,0
2018-03-24T04:45:29.014Z,0
2018-03-24T04:46:37.845Z,0
2018-03-24T04:47:46.674Z,0
2018-03-24T04:48:55.906Z,0
2018-03-24T04:50:04.738Z,0
2018-03-24T04:51:13.569Z,0
2018-03-24T04:52:22.402Z,0
2018-03-24T04:53:31.233Z,0
2018-03-24T04:54:40.062Z,0
2018-03-24T04:55:48.893Z,4
2018-03-24T04:56:57.724Z,0
2018-03-24T04:58:06.559Z,0
2018-03-24T04:59:15.391Z,4
2018-03-24T05:00:24.473Z,4
2018-03-24T05:01:33.306Z,4
2018-03-24T05:02:42.136Z,4
2018-03-24T05:03:50.963Z,8
2018-03-24T05:04:59.794Z,8
2018-03-24T05:06:08.677Z,12
2018-03-24T05:07:17.509Z,12
2018-03-24T05:08:26.345Z,12
2018-03-24T05:09:35.464Z,12
2018-03-24T05:10:44.572Z,16
2018-03-24T05:11:53.409Z,20
2018-03-24T05:13:02.235Z,20
2018-03-24T05:14:11.066Z,28
2018-03-24T05:15:20.176Z,28
2018-03-24T05:16:29.009Z,28
2018-03-24T05:17:37.992Z,36
2018-03-24T05:18:46.821Z,36
2018-03-24T05:19:55.653Z,40
2018-03-24T05:21:04.762Z,44
2018-03-24T05:22:13.591Z,48
2018-03-24T05:23:22.422Z,56
2018-03-24T05:24:31.254Z,60
2018-03-24T05:25:40.369Z,64
2018-03-24T05:26:49.479Z,76
2018-03-24T05:27:58.584Z,80
2018-03-24T05:29:07.414Z,88
2018-03-24T05:30:16.245Z,100
2018-03-24T05:31:25.074Z,108
2018-03-24T05:32:33.905Z,120
2018-03-24T05:33:42.737Z,128
2018-03-24T05:34:51.868Z,144
2018-03-24T05:36:00.698Z,156
2018-03-24T05:37:09.527Z,172
2018-03-24T05:38:18.359Z,192
2018-03-24T05:39:27.189Z,212
2018-03-24T05:40:36.320Z,232
2018-03-24T05:41:45.150Z,248
2018-03-24T05:42:54.264Z,272
2018-03-24T05:44:03.094Z,288
2018-03-24T05:45:12.202Z,308
2018-03-24T05:46:21.035Z,324
2018-03-24T05:47:29.864Z,340
2018-03-24T05:48:38.728Z,356
2018-03-24T05:49:47.525Z,376
2018-03-24T05:50:56.357Z,392
2018-03-24T05:52:05.191Z,400
2018-03-24T05:53:14.020Z,404
2018-03-24T05:54:22.851Z,416
2018-03-24T05:55:31.682Z,432
2018-03-24T05:56:40.513Z,456
2018-03-24T05:57:49.346Z,468
2018-03-24T05:58:58.180Z,480
2018-03-24T06:00:07.011Z,492
2018-03-24T06:01:16.122Z,504
2018-03-24T06:02:24.951Z,524
2018-03-24T06:03:34.083Z,556
2018-03-24T06:04:42.913Z,580
2018-03-24T06:05:51.743Z,584
2018-03-24T06:07:00.578Z,588
2018-03-24T06:08:09.404Z,600
2018-03-24T06:09:18.612Z,616
2018-03-24T06:10:27.440Z,640
2018-03-24T06:11:36.548Z,664
2018-03-24T06:12:45.378Z,688
2018-03-24T06:13:54.215Z,716
2018-03-24T06:15:03.102Z,732
2018-03-24T06:16:11.926Z,736
2018-03-24T06:17:20.757Z,756
2018-03-24T06:18:29.589Z,780
2018-03-24T06:19:38.421Z,800
2018-03-24T06:20:47.500Z,824
2018-03-24T06:21:56.337Z,832
2018-03-24T06:23:05.163Z,848
2018-03-24T06:24:13.996Z,872
2018-03-24T06:25:22.829Z,896
2018-03-24T06:26:31.809Z,912
2018-03-24T06:27:40.641Z,936
2018-03-24T06:28:49.471Z,972
2018-03-24T06:29:58.302Z,1020
2018-03-24T06:31:07.406Z,1084
2018-03-24T06:32:16.539Z,1120
2018-03-24T06:33:25.372Z,1164
2018-03-24T06:34:34.204Z,1224
2018-03-24T06:35:43.311Z,1240
2018-03-24T06:36:52.143Z,1260
2018-03-24T06:38:01.106Z,1272
2018-03-24T06:39:10.235Z,1280
2018-03-24T06:40:19.064Z,1288
2018-03-24T06:41:27.902Z,1316
2018-03-24T06:42:36.728Z,1368
2018-03-24T06:43:45.709Z,1456
2018-03-24T06:44:54.606Z,1512
2018-03-24T06:46:03.374Z,1544
2018-03-24T06:47:12.215Z,1552
2018-03-24T06:48:21.039Z,1584
2018-03-24T06:49:29.921Z,1620
2018-03-24T06:50:38.752Z,1660
2018-03-24T06:51:47.584Z,1676
2018-03-24T06:52:56.695Z,1680
2018-03-24T06:54:05.528Z,1652
2018-03-24T06:55:14.660Z,1648
2018-03-24T06:56:23.770Z,1656
2018-03-24T06:57:32.606Z,1664
2018-03-24T06:58:41.439Z,1700
2018-03-24T06:59:50.271Z,1744
2018-03-24T07:00:59.443Z,1772
2018-03-24T07:02:08.268Z,1796
2018-03-24T07:03:17.100Z,1816
2018-03-24T07:04:25.932Z,1844
2018-03-24T07:05:34.766Z,1900
2018-03-24T07:06:44.028Z,1960
2018-03-24T07:07:52.858Z,2036
2018-03-24T07:09:01.742Z,2096
2018-03-24T07:10:10.849Z,2160
2018-03-24T07:11:19.961Z,2216
2018-03-24T07:12:28.790Z,2248
2018-03-24T07:13:37.620Z,2288
2018-03-24T07:14:46.453Z,2316
2018-03-24T07:15:55.286Z,2336
2018-03-24T07:17:04.679Z,2440
2018-03-24T07:18:13.660Z,2516
2018-03-24T07:19:22.493Z,2600
2018-03-24T07:20:31.326Z,2676
2018-03-24T07:21:40.160Z,2744
2018-03-24T07:22:48.991Z,2828
2018-03-24T07:23:57.927Z,2888
2018-03-24T07:25:06.760Z,2912
2018-03-24T07:26:15.592Z,2880
2018-03-24T07:27:24.698Z,2892
2018-03-24T07:28:33.529Z,2928
2018-03-24T07:29:42.463Z,2968
2018-03-24T07:30:51.297Z,2888
2018-03-24T07:32:00.130Z,2844
2018-03-24T07:33:08.961Z,2828
2018-03-24T07:34:17.795Z,2812
2018-03-24T07:35:26.779Z,2828
2018-03-24T07:36:35.610Z,2888
2018-03-24T07:37:44.443Z,2924
2018-03-24T07:38:53.276Z,2916
2018-03-24T07:40:02.110Z,2944
2018-03-24T07:41:11.042Z,3012
2018-03-24T07:42:19.873Z,3020
2018-03-24T07:43:28.705Z,3052
2018-03-24T07:44:37.535Z,3180
2018-03-24T07:45:46.373Z,3256
2018-03-24T07:46:55.302Z,3288
2018-03-24T07:48:04.136Z,3268
2018-03-24T07:49:12.970Z,3320
2018-03-24T07:50:21.805Z,3520
2018-03-24T07:51:30.638Z,3652
2018-03-24T07:52:39.774Z,3768
2018-03-24T07:53:48.624Z,3808
2018-03-24T07:54:57.717Z,3752
2018-03-24T07:56:07.104Z,3656
2018-03-24T07:57:15.938Z,3548
2018-03-24T07:58:24.770Z,3468
2018-03-24T07:59:33.602Z,3448
2018-03-24T08:00:42.439Z,3524
2018-03-24T08:01:51.274Z,3688
2018-03-24T08:03:00.110Z,3828
2018-03-24T08:04:09.004Z,3916
2018-03-24T08:05:17.829Z,3944
2018-03-24T08:06:26.663Z,3944
2018-03-24T08:07:35.495Z,3944
2018-03-24T08:08:44.335Z,3928
2018-03-24T08:09:53.592Z,3912
2018-03-24T08:11:02.426Z,3924
2018-03-24T08:12:11.532Z,4056
2018-03-24T08:13:20.364Z,4172
2018-03-24T08:14:29.470Z,4352
2018-03-24T08:15:38.354Z,4488
2018-03-24T08:16:47.238Z,4584
2018-03-24T08:17:56.020Z,4620
2018-03-24T08:19:04.854Z,4668
2018-03-24T08:20:13.684Z,4740
2018-03-24T08:21:22.518Z,4772
2018-03-24T08:22:31.627Z,4768
2018-03-24T08:23:40.737Z,4756
2018-03-24T08:24:49.851Z,4764
2018-03-24T08:25:58.689Z,4732
2018-03-24T08:27:07.675Z,4752
2018-03-24T08:28:16.517Z,4744
2018-03-24T08:29:25.343Z,4668
2018-03-24T08:30:34.178Z,4596
2018-03-24T08:31:43.019Z,4492
2018-03-24T08:32:51.902Z,4432
2018-03-24T08:34:01.019Z,4436
2018-03-24T08:35:09.855Z,4504
2018-03-24T08:36:18.689Z,4564
2018-03-24T08:37:27.569Z,4648
2018-03-24T08:38:36.986Z,4744
2018-03-24T08:39:45.824Z,4788
2018-03-24T08:40:54.934Z,4792
2018-03-24T08:42:03.768Z,4808
2018-03-24T08:43:12.601Z,4828
2018-03-24T08:44:21.716Z,4844
2018-03-24T08:45:30.553Z,4936
2018-03-24T08:46:39.385Z,5004
2018-03-24T08:47:48.220Z,5036
2018-03-24T08:48:57.052Z,5120
2018-03-24T08:50:06.015Z,5104
2018-03-24T08:51:14.819Z,5084
2018-03-24T08:52:23.652Z,5148
2018-03-24T08:53:32.504Z,5204
2018-03-24T08:54:41.614Z,5216
2018-03-24T08:55:50.498Z,5156
2018-03-24T08:56:59.331Z,5168
2018-03-24T08:58:08.164Z,5212
2018-03-24T08:59:17.006Z,5260
2018-03-24T09:00:25.845Z,5284
2018-03-24T09:01:34.832Z,5352
2018-03-24T09:02:43.677Z,5492
2018-03-24T09:03:52.505Z,5632
2018-03-24T09:05:01.342Z,5792
2018-03-24T09:06:10.175Z,5868
2018-03-24T09:07:19.686Z,5964
2018-03-24T09:08:28.521Z,6084
2018-03-24T09:09:37.360Z,6152
2018-03-24T09:10:46.194Z,6148
2018-03-24T09:11:55.030Z,6112
2018-03-24T09:13:04.266Z,6072
2018-03-24T09:14:13.101Z,6028
2018-03-24T09:15:21.939Z,5892
2018-03-24T09:16:30.771Z,5752
2018-03-24T09:17:39.608Z,5700
2018-03-24T09:18:48.590Z,5744
2018-03-24T09:19:57.430Z,5816
2018-03-24T09:21:06.555Z,5880
2018-03-24T09:22:15.702Z,5904
2018-03-24T09:23:24.515Z,5948
2018-03-24T09:24:33.451Z,6076
2018-03-24T09:25:42.288Z,6232
2018-03-24T09:26:51.122Z,6324
2018-03-24T09:28:00.003Z,6368
2018-03-24T09:29:08.789Z,6364
2018-03-24T09:30:18.052Z,6380
2018-03-24T09:31:26.887Z,6384
2018-03-24T09:32:35.720Z,6300
2018-03-24T09:33:44.836Z,6196
2018-03-24T09:34:53.670Z,6180
2018-03-24T09:36:02.907Z,6300
2018-03-24T09:37:11.741Z,6532
2018-03-24T09:38:20.857Z,6784
2018-03-24T09:39:29.969Z,7028
2018-03-24T09:40:38.804Z,7220
2018-03-24T09:41:48.068Z,7384
2018-03-24T09:42:56.903Z,7496
2018-03-24T09:44:05.733Z,7548
2018-03-24T09:45:14.566Z,7596
2018-03-24T09:46:23.400Z,7708
2018-03-24T09:47:32.384Z,7820
2018-03-24T09:48:41.219Z,7856
2018-03-24T09:49:50.053Z,7856
2018-03-24T09:50:58.894Z,7940
2018-03-24T09:52:07.726Z,7940
2018-03-24T09:53:16.711Z,8136
2018-03-24T09:54:25.570Z,8240
2018-03-24T09:55:34.383Z,8316
2018-03-24T09:56:43.220Z,8360
2018-03-24T09:57:52.058Z,8388
2018-03-24T09:59:01.217Z,8300
2018-03-24T10:00:10.052Z,8136
2018-03-24T10:01:18.889Z,7928
2018-03-24T10:02:27.724Z,7716
2018-03-24T10:03:36.560Z,7600
2018-03-24T10:04:45.395Z,7532
2018-03-24T10:05:54.230Z,7460
2018-03-24T10:07:03.069Z,7464
2018-03-24T10:08:12.188Z,7420
2018-03-24T10:09:21.023Z,7340
2018-03-24T10:10:30.056Z,7360
2018-03-24T10:11:38.893Z,7464
2018-03-24T10:12:47.729Z,7556
2018-03-24T10:13:56.568Z,7564
2018-03-24T10:15:05.405Z,7412
2018-03-24T10:16:14.444Z,7256
2018-03-24T10:17:23.278Z,7228
2018-03-24T10:18:32.119Z,7180
2018-03-24T10:19:40.951Z,7028
2018-03-24T10:20:49.788Z,7660
2018-03-24T10:21:58.625Z,8048
2018-03-24T10:23:07.461Z,7792
2018-03-24T10:24:16.299Z,7784
2018-03-24T10:25:25.139Z,7796
2018-03-24T10:26:33.975Z,7840
2018-03-24T10:27:42.911Z,7752
2018-03-24T10:28:51.751Z,7696
2018-03-24T10:30:00.583Z,7684
2018-03-24T10:31:09.419Z,7848
2018-03-24T10:32:18.256Z,7688
2018-03-24T10:33:27.244Z,7036
2018-03-24T10:34:36.086Z,6532
2018-03-24T10:35:44.922Z,6284
2018-03-24T10:36:53.758Z,6140
2018-03-24T10:38:02.596Z,6116
2018-03-24T10:39:11.495Z,5956
2018-03-24T10:40:20.319Z,5948
2018-03-24T10:41:29.487Z,6004
2018-03-24T10:42:38.321Z,5984
2018-03-24T10:43:47.173Z,5904
2018-03-24T10:44:56.386Z,5856
2018-03-24T10:46:05.220Z,5712
2018-03-24T10:47:14.056Z,5868
2018-03-24T10:48:22.894Z,5980
2018-03-24T10:49:31.730Z,5956
2018-03-24T10:50:40.997Z,5972
2018-03-24T10:51:49.831Z,6040
2018-03-24T10:52:58.667Z,6116
2018-03-24T10:54:07.505Z,6428
2018-03-24T10:55:16.341Z,6784
2018-03-24T10:56:25.755Z,6608
2018-03-24T10:57:34.866Z,6568
2018-03-24T10:58:43.703Z,6976
2018-03-24T10:59:52.543Z,6656
2018-03-24T11:01:01.379Z,6336
2018-03-24T11:02:10.317Z,7392
2018-03-24T11:03:19.151Z,8620
2018-03-24T11:04:27.986Z,8652
2018-03-24T11:05:36.825Z,7200
2018-03-24T11:06:45.664Z,6876
2018-03-24T11:07:55.024Z,7412
2018-03-24T11:09:03.864Z,7356
2018-03-24T11:10:12.702Z,6696
2018-03-24T11:11:21.627Z,6780
2018-03-24T11:12:30.666Z,6796
2018-03-24T11:13:39.505Z,6968
2018-03-24T11:14:48.341Z,6832
2018-03-24T11:15:57.178Z,6748
2018-03-24T11:17:06.015Z,6620
2018-03-24T11:18:14.849Z,6468
2018-03-24T11:19:23.737Z,6536
2018-03-24T11:20:32.575Z,6292
2018-03-24T11:21:41.413Z,6852
2018-03-24T11:22:50.528Z,7708
2018-03-24T11:23:59.363Z,8064
2018-03-24T11:25:08.202Z,8108
2018-03-24T11:26:17.038Z,8076
2018-03-24T11:27:25.874Z,7924
2018-03-24T11:28:34.711Z,7636
2018-03-24T11:29:43.554Z,7308
2018-03-24T11:30:52.438Z,7204
2018-03-24T11:32:01.278Z,7164
2018-03-24T11:33:10.389Z,7092
2018-03-24T11:34:19.506Z,6816
2018-03-24T11:35:28.341Z,6440
2018-03-24T11:36:37.379Z,6372
2018-03-24T11:37:46.221Z,6452
2018-03-24T11:38:55.364Z,6316
2018-03-24T11:40:04.199Z,6032
2018-03-24T11:41:13.037Z,5752
2018-03-24T11:42:21.980Z,5760
2018-03-24T11:43:30.817Z,5476
2018-03-24T11:44:39.655Z,5120
2018-03-24T11:45:48.495Z,4856
2018-03-24T11:46:57.333Z,4712
2018-03-24T11:48:06.318Z,4560
2018-03-24T11:49:15.155Z,4380
2018-03-24T11:50:23.991Z,4140
2018-03-24T11:51:32.831Z,3912
2018-03-24T11:52:41.667Z,3836
2018-03-24T11:53:50.831Z,3812
2018-03-24T11:54:59.667Z,3836
2018-03-24T11:56:08.538Z,3832
2018-03-24T11:57:17.618Z,3788
2018-03-24T11:58:26.457Z,3780
2018-03-24T11:59:35.297Z,3812
2018-03-24T12:00:44.138Z,3840
2018-03-24T12:01:53.009Z,3876
2018-03-24T12:03:01.806Z,3840
2018-03-24T12:04:10.646Z,3836
2018-03-24T12:05:19.586Z,3800
2018-03-24T12:06:28.697Z,3844
2018-03-24T12:07:37.534Z,4012
2018-03-24T12:08:46.372Z,4112
2018-03-24T12:09:55.208Z,4108
2018-03-24T12:11:04.420Z,4144
2018-03-24T12:12:13.256Z,4112
2018-03-24T12:13:22.092Z,3956
2018-03-24T12:14:30.929Z,3844
2018-03-24T12:15:39.766Z,3896
2018-03-24T12:16:48.714Z,3996
2018-03-24T12:17:57.555Z,3952
2018-03-24T12:19:06.667Z,3920
2018-03-24T12:20:15.778Z,3860
2018-03-24T12:21:24.613Z,3780
2018-03-24T12:22:33.548Z,3728
2018-03-24T12:23:42.385Z,3668
2018-03-24T12:24:51.221Z,3620
2018-03-24T12:26:00.061Z,3572
2018-03-24T12:27:08.896Z,3580
2018-03-24T12:28:17.733Z,3608
2018-03-24T12:29:26.842Z,3596
2018-03-24T12:30:35.680Z,3540
2018-03-24T12:31:44.517Z,3464
2018-03-24T12:32:53.357Z,3488
2018-03-24T12:34:02.339Z,3652
2018-03-24T12:35:11.175Z,3908
2018-03-24T12:36:20.288Z,4080
2018-03-24T12:37:29.127Z,4168
2018-03-24T12:38:37.961Z,4112
2018-03-24T12:39:47.052Z,3992
2018-03-24T12:40:55.888Z,3916
2018-03-24T12:42:04.720Z,4016
2018-03-24T12:43:13.555Z,4004
2018-03-24T12:44:22.388Z,4040
2018-03-24T12:45:31.525Z,4140
2018-03-24T12:46:40.458Z,4152
2018-03-24T12:47:49.295Z,4180
2018-03-24T12:48:58.132Z,4292
2018-03-24T12:50:06.970Z,4540
2018-03-24T12:51:15.909Z,4688
2018-03-24T12:52:24.743Z,4728
2018-03-24T12:53:33.580Z,4812
2018-03-24T12:54:42.690Z,4924
2018-03-24T12:55:51.526Z,5056
2018-03-24T12:57:00.611Z,5160
2018-03-24T12:58:09.447Z,5224
2018-03-24T12:59:18.287Z,5324
2018-03-24T13:00:27.453Z,5360
2018-03-24T13:01:36.511Z,5352
2018-03-24T13:02:45.399Z,5368
2018-03-24T13:03:54.235Z,5376
2018-03-24T13:05:03.070Z,5276
2018-03-24T13:06:11.906Z,5056
2018-03-24T13:07:21.020Z,4808
2018-03-24T13:08:29.859Z,4620
2018-03-24T13:09:38.700Z,4456
2018-03-24T13:10:47.538Z,4296
2018-03-24T13:11:56.373Z,4172
2018-03-24T13:13:05.488Z,4040
2018-03-24T13:14:14.707Z,3940
2018-03-24T13:15:23.545Z,3824
2018-03-24T13:16:32.380Z,3672
2018-03-24T13:17:41.221Z,3500
2018-03-24T13:18:50.341Z,3360
2018-03-24T13:19:59.229Z,3228
2018-03-24T13:21:08.066Z,3100
2018-03-24T13:22:16.901Z,2972
2018-03-24T13:23:25.741Z,2864
2018-03-24T13:24:34.857Z,2812
2018-03-24T13:25:43.751Z,2824
2018-03-24T13:26:52.587Z,2876
2018-03-24T13:28:01.421Z,2932
2018-03-24T13:29:10.254Z,2984
2018-03-24T13:30:19.651Z,3040
2018-03-24T13:31:28.962Z,3072
2018-03-24T13:32:37.799Z,3084
2018-03-24T13:33:46.634Z,3048
2018-03-24T13:34:55.469Z,2984
2018-03-24T13:36:04.307Z,2888
2018-03-24T13:37:13.243Z,2836
2018-03-24T13:38:22.079Z,2820
2018-03-24T13:39:30.916Z,2848
2018-03-24T13:40:39.759Z,2956
2018-03-24T13:41:48.871Z,3072
2018-03-24T13:42:57.987Z,3176
2018-03-24T13:44:07.097Z,3276
2018-03-24T13:45:15.934Z,3320
2018-03-24T13:46:24.771Z,3268
2018-03-24T13:47:33.607Z,3180
2018-03-24T13:48:42.446Z,3144
2018-03-24T13:49:51.279Z,3120
2018-03-24T13:51:00.121Z,3108
2018-03-24T13:52:08.968Z,3084
2018-03-24T13:53:17.795Z,3060
2018-03-24T13:54:26.933Z,2940
2018-03-24T13:55:36.336Z,2828
2018-03-24T13:56:45.169Z,2812
2018-03-24T13:57:54.286Z,2840
2018-03-24T13:59:03.119Z,2908
2018-03-24T14:00:12.329Z,2988
2018-03-24T14:01:21.163Z,3048
2018-03-24T14:02:29.998Z,3060
2018-03-24T14:03:38.899Z,3016
2018-03-24T14:04:47.668Z,2984
2018-03-24T14:05:56.555Z,2984
2018-03-24T14:07:05.394Z,2992
2018-03-24T14:08:14.230Z,2912
2018-03-24T14:09:23.065Z,2708
2018-03-24T14:10:31.903Z,2456
2018-03-24T14:11:40.840Z,2272
2018-03-24T14:12:49.678Z,2240
2018-03-24T14:13:58.515Z,2332
2018-03-24T14:15:07.350Z,2500
2018-03-24T14:16:16.186Z,2696
2018-03-24T14:17:25.072Z,2856
2018-03-24T14:18:33.909Z,2936
2018-03-24T14:19:42.746Z,2912
2018-03-24T14:20:51.581Z,2872
2018-03-24T14:22:00.694Z,2892
2018-03-24T14:23:09.929Z,2916
2018-03-24T14:24:18.763Z,2972
2018-03-24T14:25:27.600Z,3044
2018-03-24T14:26:36.436Z,3080
2018-03-24T14:27:45.271Z,3076
2018-03-24T14:28:54.410Z,3032
2018-03-24T14:30:03.250Z,2984
2018-03-24T14:31:12.082Z,2984
2018-03-24T14:32:20.920Z,2992
2018-03-24T14:33:29.755Z,2948
2018-03-24T14:34:39.018Z,2888
2018-03-24T14:35:47.851Z,2844
2018-03-24T14:36:56.687Z,2772
2018-03-24T14:38:05.524Z,2744
2018-03-24T14:39:14.366Z,2772
2018-03-24T14:40:23.206Z,2848
2018-03-24T14:41:32.044Z,2948
2018-03-24T14:42:40.881Z,3052
2018-03-24T14:43:49.715Z,3108
2018-03-24T14:44:58.551Z,3024
2018-03-24T14:46:07.384Z,2904
2018-03-24T14:47:16.221Z,2776
2018-03-24T14:48:25.058Z,2676
2018-03-24T14:49:33.893Z,2656
2018-03-24T14:50:42.730Z,2636
2018-03-24T14:51:51.667Z,2608
2018-03-24T14:53:00.777Z,2616
2018-03-24T14:54:09.617Z,2640
2018-03-24T14:55:18.727Z,2632
2018-03-24T14:56:27.561Z,2592
2018-03-24T14:57:36.398Z,2536
2018-03-24T14:58:45.235Z,2484
2018-03-24T14:59:54.070Z,2452
2018-03-24T15:01:02.907Z,2400
2018-03-24T15:02:11.746Z,2336
2018-03-24T15:03:20.857Z,2264
2018-03-24T15:04:29.691Z,2196
2018-03-24T15:05:38.529Z,2164
2018-03-24T15:06:47.364Z,2192
2018-03-24T15:07:56.201Z,2236
2018-03-24T15:09:05.141Z,2292
2018-03-24T15:10:14.531Z,2320
2018-03-24T15:11:23.377Z,2300
2018-03-24T15:12:32.248Z,2280
2018-03-24T15:13:41.098Z,2308
2018-03-24T15:14:49.983Z,2372
2018-03-24T15:15:59.098Z,2408
2018-03-24T15:17:07.937Z,2320
2018-03-24T15:18:16.773Z,2212
2018-03-24T15:19:25.642Z,2184
2018-03-24T15:20:34.542Z,2168
2018-03-24T15:21:43.376Z,2120
2018-03-24T15:22:52.209Z,2064
2018-03-24T15:24:01.047Z,2032
2018-03-24T15:25:10.157Z,2008
2018-03-24T15:26:19.292Z,1984
2018-03-24T15:27:28.129Z,1968
2018-03-24T15:28:36.966Z,1936
2018-03-24T15:29:45.804Z,1892
2018-03-24T15:30:54.638Z,1900
2018-03-24T15:32:03.623Z,1936
2018-03-24T15:33:12.458Z,1968
2018-03-24T15:34:21.293Z,2000
2018-03-24T15:35:30.129Z,2044
2018-03-24T15:36:39.252Z,2072
2018-03-24T15:37:48.515Z,2132
2018-03-24T15:38:57.637Z,2212
2018-03-24T15:40:06.503Z,2296
2018-03-24T15:41:15.309Z,2356
2018-03-24T15:42:24.144Z,2376
2018-03-24T15:43:32.981Z,2356
2018-03-24T15:44:41.827Z,2304
2018-03-24T15:45:50.661Z,2224
2018-03-24T15:46:59.495Z,2128
2018-03-24T15:48:08.333Z,2044
2018-03-24T15:49:17.225Z,1964
2018-03-24T15:50:26.053Z,1916
2018-03-24T15:51:35.167Z,1916